Time;durP1;ratioP1;P1;durP2;ratioP2;P2;SDS_P1;SDS_P2;PMS_P1;PMS_P2;Temp;Humidity;BMP_temperature;BMP_pressure;BME280_temperature;BME280_humidity;BME280_pressure;Samples;Min_cycle;Max_cycle;Signal;HPM_P1;HPM_P2
2022/01/16 15:12:32;;;;;;;3.65;2.88;;;16.70;62.40;;;;;;5108096;27;1373371;-66
2022/01/16 15:14:59;;;;;;;3.13;2.63;;;15.40;67.80;;;;;;5124271;27;20134;-75
2022/01/16 15:17:29;;;;;;;3.13;2.45;;;14.30;71.80;;;;;;5118070;28;20053;-73
2022/01/16 15:20:03;;;;;;;2.75;2.00;;;13.30;74.90;;;;;;5127594;27;20059;-73
2022/01/16 15:22:30;;;;;;;4.25;3.40;;;12.60;77.80;;;;;;5126325;28;20047;-74
2022/01/16 15:24:57;;;;;;;4.57;3.58;;;11.90;79.80;;;;;;5101385;28;20052;-74
2022/01/16 15:27:26;;;;;;;4.18;3.05;;;11.40;81.80;;;;;;5118623;28;20096;-71
2022/01/16 15:29:53;;;;;;;3.83;2.70;;;11.00;84.70;;;;;;5108629;28;20143;-71
2022/01/16 15:32:20;;;;;;;4.57;3.28;;;10.60;88.30;;;;;;5127308;27;20035;-71
2022/01/16 15:34:48;;;;;;;5.80;4.10;;;10.30;90.20;;;;;;5127787;27;20131;-71
2022/01/16 15:37:28;;;;;;;5.82;4.20;;;10.10;91.30;;;;;;5121082;28;20048;-70
2022/01/16 15:39:56;;;;;;;4.82;3.88;;;9.80;92.00;;;;;;5124129;27;20051;-74
2022/01/16 15:42:23;;;;;;;5.43;4.70;;;9.60;93.00;;;;;;5126676;28;20391;-77
2022/01/16 15:44:50;;;;;;;5.22;4.13;;;9.40;93.30;;;;;;5126241;28;20051;-72
2022/01/16 15:47:18;;;;;;;5.95;4.65;;;9.20;93.20;;;;;;5127094;27;20048;-71
2022/01/16 15:49:45;;;;;;;6.22;5.00;;;9.10;92.90;;;;;;5125744;28;20047;-72
2022/01/16 15:52:13;;;;;;;22.33;19.95;;;9.00;93.00;;;;;;5127057;28;20047;-67
2022/01/16 15:54:46;;;;;;;11.10;9.65;;;8.90;93.10;;;;;;5110769;28;20066;-72
2022/01/16 15:57:14;;;;;;;9.57;7.40;;;8.80;93.70;;;;;;5093756;28;20130;-73
2022/01/16 15:59:41;;;;;;;9.13;6.68;;;8.70;94.20;;;;;;5126666;28;20039;-72
2022/01/16 16:02:09;;;;;;;6.57;5.13;;;8.60;94.10;;;;;;5125115;28;20047;-72
2022/01/16 16:04:36;;;;;;;5.82;4.78;;;8.50;94.10;;;;;;5125319;27;20108;-71
2022/01/16 16:07:03;;;;;;;6.25;4.45;;;8.40;93.90;;;;;;5117911;28;20395;-71
2022/01/16 16:09:30;;;;;;;4.82;3.75;;;8.30;93.20;;;;;;5103951;28;20047;-74
2022/01/16 16:12:02;;;;;;;5.50;3.95;;;8.20;93.10;;;;;;5109342;28;20062;-72
2022/01/16 16:14:29;;;;;;;4.85;3.20;;;8.20;93.20;;;;;;5128795;27;20130;-72
2022/01/16 16:16:58;;;;;;;4.95;3.38;;;8.10;92.90;;;;;;5110619;28;20567;-72
2022/01/16 16:19:26;;;;;;;5.57;3.90;;;8.00;93.00;;;;;;5128569;28;20410;-71
2022/01/16 16:21:53;;;;;;;5.70;3.60;;;8.00;93.00;;;;;;5108933;28;20040;-73
2022/01/16 16:24:20;;;;;;;4.00;2.80;;;7.90;92.80;;;;;;5106466;28;20040;-73
2022/01/16 16:26:48;;;;;;;5.20;3.78;;;7.80;93.10;;;;;;5076720;28;20044;-72
2022/01/16 16:29:16;;;;;;;5.90;4.38;;;7.70;93.60;;;;;;5090401;28;20044;-71
2022/01/16 16:31:43;;;;;;;4.05;2.95;;;7.70;93.50;;;;;;5113074;28;20455;-72
2022/01/16 16:34:10;;;;;;;4.97;3.30;;;7.60;93.30;;;;;;5096647;28;20104;-73
2022/01/16 16:36:37;;;;;;;4.35;3.40;;;7.60;93.50;;;;;;5112938;28;20043;-74
2022/01/16 16:39:06;;;;;;;4.72;2.72;;;7.50;93.40;;;;;;5108629;28;20041;-71
2022/01/16 16:41:37;;;;;;;4.85;3.53;;;7.40;93.10;;;;;;5112423;28;20090;-72
2022/01/16 16:44:07;;;;;;;3.95;2.97;;;7.40;93.40;;;;;;5111585;28;20058;-73
2022/01/16 16:46:36;;;;;;;5.28;3.85;;;7.30;93.50;;;;;;5111240;28;20054;-73
2022/01/16 16:49:06;;;;;;;4.75;3.78;;;7.30;93.50;;;;;;5112125;28;20043;-76
2022/01/16 16:51:33;;;;;;;5.43;4.10;;;7.20;94.20;;;;;;5111466;28;20498;-73
2022/01/16 16:54:01;;;;;;;5.47;3.72;;;7.10;94.00;;;;;;5111607;28;20043;-74
2022/01/16 16:56:28;;;;;;;5.03;4.10;;;7.10;93.80;;;;;;5095317;28;20131;-74
2022/01/16 16:58:56;;;;;;;5.57;3.88;;;7.00;94.00;;;;;;5112038;28;20490;-76
2022/01/16 17:01:22;;;;;;;6.90;4.28;;;7.00;94.30;;;;;;5112444;28;20139;-73
2022/01/16 17:42:03;;;;;;;5.72;4.10;;;6.40;99.70;;;;;;5040116;28;20506;-75
2022/01/16 17:44:30;;;;;;;5.77;4.23;;;6.40;96.00;;;;;;5033475;28;20051;-75
2022/01/16 17:46:58;;;;;;;5.68;3.75;;;6.30;96.10;;;;;;5049523;28;20131;-75
2022/01/16 17:49:25;;;;;;;5.43;4.13;;;6.30;95.50;;;;;;5046304;28;20053;-77
2022/01/16 17:52:01;;;;;;;6.22;4.50;;;6.20;95.50;;;;;;5022310;28;20041;-75
2022/01/16 17:54:31;;;;;;;6.00;3.78;;;6.20;95.70;;;;;;5020257;28;20048;-76
2022/01/16 17:57:15;;;;;;;6.22;3.70;;;6.20;96.30;;;;;;5017511;28;20068;-75
2022/01/16 17:59:42;;;;;;;4.95;3.40;;;6.20;96.10;;;;;;5015690;28;20129;-75
2022/01/16 18:02:09;;;;;;;5.20;3.55;;;6.20;96.00;;;;;;5015278;28;20089;-75
2022/01/16 18:04:37;;;;;;;6.47;4.85;;;6.10;96.10;;;;;;5027259;28;20077;-72
2022/01/16 18:07:03;;;;;;;6.40;4.32;;;6.10;95.80;;;;;;5016176;28;20083;-71
2022/01/16 18:09:31;;;;;;;6.45;4.00;;;6.10;95.80;;;;;;5000341;28;20049;-71
2022/01/16 18:11:58;;;;;;;7.63;4.72;;;6.00;95.90;;;;;;4994766;28;20080;-75
2022/01/16 18:14:28;;;;;;;10.65;8.27;;;6.00;96.00;;;;;;4979110;28;20045;-71
2022/01/16 18:16:55;;;;;;;21.38;16.00;;;6.00;96.30;;;;;;5009782;28;20064;-70
2022/01/16 18:19:22;;;;;;;20.90;14.32;;;6.00;96.60;;;;;;5032184;28;20049;-71
2022/01/16 18:21:49;;;;;;;13.18;10.00;;;6.00;96.10;;;;;;5051924;28;20044;-70
2022/01/16 18:24:16;;;;;;;11.07;9.02;;;6.00;96.30;;;;;;5034037;28;20053;-71
2022/01/16 18:26:44;;;;;;;11.02;8.77;;;6.00;97.20;;;;;;5030896;28;20081;-70
2022/01/16 18:29:11;;;;;;;9.00;6.10;;;5.90;96.30;;;;;;4997855;28;20492;-72
2022/01/16 18:31:39;;;;;;;9.50;5.90;;;5.90;96.50;;;;;;5039597;28;20510;-72
2022/01/16 18:34:06;;;;;;;7.78;5.55;;;5.90;96.60;;;;;;5038300;28;20507;-71
2022/01/16 18:36:34;;;;;;;7.28;5.20;;;5.90;97.10;;;;;;5017172;28;20133;-71
2022/01/16 18:39:01;;;;;;;7.78;5.13;;;5.80;96.60;;;;;;5014918;28;20053;-70
2022/01/16 18:41:28;;;;;;;6.30;4.35;;;5.80;96.90;;;;;;4980878;28;20571;-71
2022/01/16 18:43:55;;;;;;;6.00;4.85;;;5.80;96.30;;;;;;5007531;28;20046;-71
2022/01/16 18:46:24;;;;;;;8.45;5.93;;;5.70;96.60;;;;;;5014008;28;20045;-71
2022/01/16 18:48:57;;;;;;;6.65;4.65;;;5.70;97.10;;;;;;5016145;28;20439;-71
2022/01/16 18:51:25;;;;;;;6.18;4.95;;;5.70;96.70;;;;;;5012793;28;20060;-71
2022/01/16 18:53:52;;;;;;;7.85;5.57;;;5.70;97.10;;;;;;5006309;28;20466;-70
2022/01/16 18:56:20;;;;;;;5.95;4.20;;;5.70;97.30;;;;;;4987901;28;20053;-70
2022/01/16 18:58:47;;;;;;;7.07;4.97;;;5.70;97.60;;;;;;5019348;28;20046;-70
2022/01/16 19:01:14;;;;;;;5.53;4.00;;;5.80;97.70;;;;;;5031833;28;20055;-70
2022/01/16 19:03:42;;;;;;;5.53;4.00;;;5.80;97.90;;;;;;5007721;28;20410;-70
2022/01/16 19:06:09;;;;;;;5.15;4.03;;;5.80;98.00;;;;;;5019051;28;20049;-73
2022/01/16 19:08:36;;;;;;;20.23;16.40;;;5.90;98.20;;;;;;5007789;28;20053;-70
2022/01/16 19:11:03;;;;;;;16.35;11.57;;;5.90;98.50;;;;;;4998036;28;20140;-70
2022/01/16 19:13:30;;;;;;;12.65;9.15;;;6.00;98.70;;;;;;5013952;28;20394;-70
2022/01/16 19:15:57;;;;;;;12.60;8.23;;;6.00;98.90;;;;;;5017923;28;20514;-70
2022/01/16 19:18:24;;;;;;;14.70;8.90;;;6.10;98.40;;;;;;5025192;28;20045;-70
2022/01/16 19:20:51;;;;;;;12.80;8.13;;;6.10;98.80;;;;;;5013921;28;20064;-70
2022/01/16 19:23:18;;;;;;;13.05;8.45;;;6.20;98.70;;;;;;5010239;28;20165;-70
2022/01/16 19:25:45;;;;;;;13.75;7.97;;;6.20;98.70;;;;;;5029970;28;20506;-70
2022/01/16 19:28:12;;;;;;;10.10;6.82;;;6.30;98.70;;;;;;5032783;28;20048;-71
2022/01/16 19:30:40;;;;;;;12.52;7.90;;;6.30;99.00;;;;;;5000510;28;20115;-71
2022/01/16 19:33:07;;;;;;;10.27;6.88;;;6.40;98.70;;;;;;5014222;28;20044;-70
2022/01/16 19:35:35;;;;;;;9.35;7.07;;;6.40;98.70;;;;;;4984903;28;20514;-70
2022/01/16 19:38:02;;;;;;;7.75;5.80;;;6.50;99.50;;;;;;5006550;28;20053;-70
2022/01/16 19:40:31;;;;;;;7.78;5.50;;;6.50;99.30;;;;;;5005692;28;20499;-70
2022/01/16 19:43:06;;;;;;;8.50;6.05;;;6.50;99.40;;;;;;5048531;28;20492;-71
2022/01/16 19:45:36;;;;;;;7.13;4.68;;;6.60;99.40;;;;;;4996729;28;20056;-70
2022/01/16 19:48:05;;;;;;;5.65;4.20;;;6.60;98.90;;;;;;4996211;28;20153;-71
2022/01/16 19:50:32;;;;;;;5.13;3.90;;;6.60;99.20;;;;;;5020990;28;20487;-74
2022/01/16 19:52:59;;;;;;;5.78;3.92;;;6.70;98.90;;;;;;5022899;28;20476;-78
2022/01/16 19:55:28;;;;;;;7.22;5.15;;;6.70;99.00;;;;;;5022348;28;20081;-71
2022/01/16 19:57:55;;;;;;;6.82;5.22;;;6.80;99.20;;;;;;5032847;28;20548;-70
2022/01/16 20:00:22;;;;;;;5.28;4.13;;;6.80;99.60;;;;;;5027098;28;20045;-71
2022/01/16 20:02:51;;;;;;;4.95;3.78;;;6.80;99.10;;;;;;5036190;28;20072;-71
2022/01/16 20:05:18;;;;;;;7.10;4.05;;;6.90;99.10;;;;;;5003345;28;20048;-71
2022/01/16 20:07:45;;;;;;;4.30;3.10;;;6.90;99.50;;;;;;5046883;28;20055;-70
2022/01/16 20:10:12;;;;;;;5.95;3.70;;;6.90;99.30;;;;;;5043488;28;20119;-71
2022/01/16 20:12:39;;;;;;;4.68;3.47;;;6.90;99.40;;;;;;5027768;28;20044;-71
2022/01/16 20:15:07;;;;;;;4.57;3.22;;;6.90;99.50;;;;;;4999837;28;20549;-71
2022/01/16 20:17:34;;;;;;;4.13;3.15;;;6.90;99.70;;;;;;5031842;28;20120;-71
2022/01/16 20:20:01;;;;;;;5.00;3.20;;;6.90;99.90;;;;;;4999534;28;20089;-71
2022/01/16 20:22:29;;;;;;;4.70;3.38;;;6.90;99.90;;;;;;5029865;28;20042;-71
2022/01/16 20:24:56;;;;;;;5.35;3.63;;;7.00;99.90;;;;;;5037567;28;20055;-71
2022/01/16 20:27:23;;;;;;;4.30;3.20;;;6.90;99.90;;;;;;5034488;28;20120;-71
2022/01/16 20:29:50;;;;;;;3.78;3.20;;;6.90;99.90;;;;;;4996279;28;20408;-70
2022/01/16 20:32:17;;;;;;;7.78;3.80;;;6.90;99.90;;;;;;5012680;28;20051;-71
2022/01/16 20:34:43;;;;;;;4.80;3.30;;;6.90;99.90;;;;;;5019754;28;20045;-71
2022/01/16 20:37:11;;;;;;;4.35;3.58;;;6.90;99.90;;;;;;5036627;28;20129;-71
2022/01/16 20:39:37;;;;;;;5.00;3.55;;;6.90;99.90;;;;;;4999491;28;20054;-71
2022/01/16 20:42:05;;;;;;;4.38;2.83;;;6.90;99.90;;;;;;5033588;28;20064;-71
2022/01/16 20:44:32;;;;;;;4.47;3.20;;;6.90;99.90;;;;;;4998498;28;20073;-71
2022/01/16 20:46:59;;;;;;;3.40;2.97;;;6.90;99.90;;;;;;5037610;28;20056;-71
2022/01/16 20:49:26;;;;;;;4.13;3.35;;;6.90;99.90;;;;;;5046700;28;20051;-71
2022/01/16 20:51:53;;;;;;;4.53;3.53;;;6.90;99.90;;;;;;5048242;28;20059;-70
2022/01/16 20:54:20;;;;;;;3.90;3.15;;;6.90;99.90;;;;;;5000059;28;20045;-71
2022/01/16 20:56:49;;;;;;;3.83;3.22;;;6.90;99.90;;;;;;5003993;28;20052;-71
2022/01/16 20:59:36;;;;;;;4.68;3.30;;;6.90;99.90;;;;;;5042296;28;20943;-71
2022/01/16 21:02:05;;;;;;;3.50;2.83;;;6.90;99.90;;;;;;5034181;28;20064;-71
2022/01/16 21:04:33;;;;;;;3.97;2.95;;;6.90;99.90;;;;;;5049994;28;20099;-70
2022/01/16 21:07:01;;;;;;;4.47;3.72;;;6.90;99.90;;;;;;5032825;28;20036;-72
2022/01/16 21:09:32;;;;;;;4.35;3.53;;;6.90;99.90;;;;;;5019708;28;20510;-70
2022/01/16 21:11:59;;;;;;;4.70;3.60;;;6.90;99.90;;;;;;5033723;28;20045;-72
2022/01/16 21:14:26;;;;;;;5.90;3.50;;;6.90;99.90;;;;;;4997468;28;20060;-70
2022/01/16 21:16:54;;;;;;;4.70;3.40;;;7.00;99.90;;;;;;5041822;28;20547;-70
2022/01/16 21:19:21;;;;;;;3.65;2.83;;;6.90;99.90;;;;;;5018743;28;20048;-70
2022/01/16 21:21:48;;;;;;;6.03;3.83;;;7.00;99.90;;;;;;5016087;28;20053;-70
2022/01/16 21:24:16;;;;;;;5.22;3.72;;;7.00;99.90;;;;;;5037567;28;20128;-74
2022/01/16 21:26:44;;;;;;;4.63;3.13;;;7.00;99.90;;;;;;4988596;28;20480;-70
2022/01/16 21:29:12;;;;;;;5.22;3.97;;;6.90;99.90;;;;;;5031648;28;20052;-71
2022/01/16 21:31:39;;;;;;;4.90;3.50;;;6.90;99.90;;;;;;4996454;28;20132;-70
2022/01/16 21:34:06;;;;;;;5.03;3.35;;;6.90;99.90;;;;;;5044907;28;20419;-70
2022/01/16 21:36:33;;;;;;;4.07;3.38;;;6.90;99.90;;;;;;5052457;28;20052;-71
2022/01/16 21:39:02;;;;;;;6.07;4.35;;;6.80;99.90;;;;;;5037177;28;20042;-71
2022/01/16 21:41:29;;;;;;;4.90;3.17;;;6.80;99.90;;;;;;5038125;28;20057;-71
2022/01/16 21:43:56;;;;;;;4.63;3.75;;;6.70;99.90;;;;;;5025311;28;20084;-71
2022/01/16 21:46:23;;;;;;;4.63;3.42;;;6.60;99.90;;;;;;5033087;28;20045;-70
2022/01/16 21:48:51;;;;;;;4.78;3.33;;;6.50;99.90;;;;;;4999742;28;20514;-71
2022/01/16 21:51:18;;;;;;;4.03;3.53;;;6.50;99.90;;;;;;5038589;28;20041;-70
2022/01/16 21:53:45;;;;;;;4.80;3.90;;;6.50;99.90;;;;;;5025193;28;20085;-71
2022/01/16 21:56:13;;;;;;;5.05;3.95;;;6.50;99.90;;;;;;5051323;28;20045;-71
2022/01/16 21:58:49;;;;;;;4.50;3.60;;;6.50;99.90;;;;;;5033972;28;20048;-71
2022/01/16 22:01:16;;;;;;;4.18;3.00;;;6.50;99.90;;;;;;4995806;28;20045;-71
2022/01/16 22:03:43;;;;;;;5.63;4.63;;;6.50;99.90;;;;;;5025219;28;20067;-72
2022/01/16 22:06:10;;;;;;;4.55;4.00;;;6.50;99.90;;;;;;5022048;28;20544;-71
2022/01/16 22:08:37;;;;;;;5.88;4.15;;;6.60;99.90;;;;;;4997675;28;20393;-71
2022/01/16 22:11:04;;;;;;;6.88;4.90;;;6.60;99.90;;;;;;5029584;28;20054;-71
2022/01/16 22:13:31;;;;;;;5.85;4.55;;;6.70;99.90;;;;;;5045624;28;20095;-71
2022/01/16 22:15:58;;;;;;;4.55;3.65;;;6.70;99.90;;;;;;5016667;28;20076;-71
2022/01/16 22:18:28;;;;;;;5.70;4.50;;;6.80;99.90;;;;;;5049192;28;20075;-71
2022/01/16 22:20:55;;;;;;;5.25;3.88;;;6.80;99.90;;;;;;5032896;28;20046;-71
2022/01/16 22:23:22;;;;;;;4.10;3.38;;;6.80;99.90;;;;;;5023414;28;20437;-71
2022/01/16 22:25:49;;;;;;;4.80;3.67;;;6.80;99.90;;;;;;4999615;28;20041;-71
2022/01/16 22:28:16;;;;;;;4.88;3.38;;;6.80;99.90;;;;;;5015853;28;20049;-71
2022/01/16 22:30:43;;;;;;;5.68;4.28;;;6.80;99.90;;;;;;5014697;28;20488;-71
2022/01/16 22:33:10;;;;;;;3.72;3.10;;;6.70;99.90;;;;;;5037884;28;20049;-71
2022/01/16 22:35:37;;;;;;;8.18;5.03;;;6.70;99.90;;;;;;5035723;28;20049;-71
2022/01/16 22:38:04;;;;;;;5.72;4.60;;;6.60;99.90;;;;;;4999691;28;20128;-71
2022/01/16 22:40:31;;;;;;;4.13;3.28;;;6.60;99.90;;;;;;5043990;28;20045;-71
2022/01/16 22:42:58;;;;;;;7.20;3.75;;;6.50;99.90;;;;;;5032252;28;20056;-71
2022/01/16 22:45:27;;;;;;;4.65;2.72;;;6.50;99.90;;;;;;5031332;28;20572;-70
2022/01/16 22:47:55;;;;;;;4.15;2.67;;;6.40;99.90;;;;;;5050272;28;20484;-70
2022/01/16 22:50:23;;;;;;;4.38;2.97;;;6.30;99.90;;;;;;5044595;28;20046;-71
2022/01/16 22:52:50;;;;;;;5.25;3.58;;;6.30;99.90;;;;;;5014659;28;20055;-70
2022/01/16 22:55:17;;;;;;;6.22;3.40;;;6.20;99.90;;;;;;5015760;28;20499;-71
2022/01/16 22:57:44;;;;;;;5.13;2.92;;;6.10;99.90;;;;;;5017321;28;20160;-71
2022/01/16 23:00:19;;;;;;;5.05;2.40;;;6.10;99.90;;;;;;5047515;28;20048;-71
2022/01/16 23:02:47;;;;;;;5.18;2.20;;;6.00;99.90;;;;;;5015383;28;20055;-71
2022/01/16 23:05:15;;;;;;;3.00;1.80;;;6.00;99.90;;;;;;5011250;28;20047;-71
2022/01/16 23:07:42;;;;;;;4.45;1.90;;;5.90;99.90;;;;;;4998494;28;20053;-71
2022/01/16 23:10:09;;;;;;;3.67;2.10;;;5.80;99.90;;;;;;5017498;28;20049;-71
2022/01/16 23:12:36;;;;;;;2.70;1.80;;;5.80;99.90;;;;;;4994324;28;20058;-71
2022/01/16 23:15:05;;;;;;;4.35;1.40;;;5.70;99.90;;;;;;5015744;28;20121;-71
2022/01/16 23:17:31;;;;;;;3.33;1.88;;;5.60;99.90;;;;;;5000485;28;20054;-71
2022/01/16 23:19:58;;;;;;;3.30;2.13;;;5.60;99.90;;;;;;5019719;28;20049;-71
2022/01/16 23:22:25;;;;;;;3.25;1.80;;;5.50;99.90;;;;;;5025531;28;20041;-71
2022/01/16 23:24:53;;;;;;;3.05;1.73;;;5.50;99.90;;;;;;5026209;28;20041;-71
2022/01/16 23:27:20;;;;;;;3.83;1.70;;;5.50;99.90;;;;;;5033452;28;20051;-71
2022/01/16 23:29:47;;;;;;;3.65;1.70;;;5.40;99.90;;;;;;5029828;28;20474;-71
2022/01/16 23:32:14;;;;;;;2.25;1.50;;;5.40;99.90;;;;;;5014648;28;20091;-71
2022/01/16 23:34:46;;;;;;;4.20;2.08;;;5.40;99.90;;;;;;5020969;28;20056;-71
2022/01/16 23:37:13;;;;;;;3.13;1.50;;;5.30;99.90;;;;;;5050571;28;20044;-71
2022/01/16 23:39:40;;;;;;;2.85;1.67;;;5.30;99.90;;;;;;5052261;28;20056;-71
2022/01/16 23:42:07;;;;;;;2.85;1.80;;;5.20;99.90;;;;;;5037223;28;20123;-71
2022/01/16 23:44:35;;;;;;;4.53;1.77;;;5.20;99.90;;;;;;5052280;28;20139;-71
2022/01/16 23:47:02;;;;;;;3.97;1.63;;;5.20;99.90;;;;;;5035289;28;20045;-71
2022/01/16 23:49:29;;;;;;;5.10;2.75;;;5.10;99.90;;;;;;5052010;28;20063;-71
2022/01/16 23:51:59;;;;;;;3.15;1.70;;;5.10;99.90;;;;;;5036962;28;20084;-71
2022/01/16 23:54:26;;;;;;;;;;;5.00;99.90;;;;;;5036258;28;20073;-71
2022/01/16 23:56:54;;;;;;;4.55;1.90;;;5.00;99.90;;;;;;5033494;28;19921;-71
2022/01/16 23:59:21;;;;;;;2.60;1.83;;;5.00;99.90;;;;;;5033099;28;20524;-71
